Live aus Altenrhein
LIVE
LSZR 300450Z AUTO VRB02KT 8000 NCD 01/01 Q1014

People´s Info Center:

Öffnungszeiten Mo-Fr, 8-18 Uhr

 

info@peoples.ch

 
Aus Österreich:

T: +43 (0)5572 203 610

 

Aus CH / LI / DE:

T: +41 (0)71 858 51 60

 

Webcam Flughafen St.Gallen-Altenrhein

Live-Bilder und Zeitraffer LSZR / ACH.

 

Live aus Altenrhein
LIVE
LSZR 300450Z AUTO VRB02KT 8000 NCD 01/01 Q1014
Zeitraffer heute
2017-04-30 00:14:53
LSZR 292150Z AUTO 13003KT 090V170 CAVOK 05/02 Q1015
Zeitraffer gestern
2017-04-29 00:14:57
LSZR 282150Z AUTO VRB02KT 8000 OVC080 02/02 Q1019
Zeitraffer vor 3 Tagen
2017-04-27 00:14:55
LSZR 262150Z AUTO VRB01KT 9999 -DZ OVC010 03/03 Q1012